createdAt,value
2018-05-26T00:01:05.992Z,335.73
2018-05-26T00:03:33.675Z,304.60
2018-05-26T00:06:01.144Z,269.93
2018-05-26T00:08:28.620Z,431.07
2018-05-26T00:10:56.130Z,304.77
2018-05-26T00:13:23.598Z,183.90
2018-05-26T00:15:51.091Z,498.33
2018-05-26T00:18:18.551Z,463.53
2018-05-26T00:20:46.042Z,739.83
2018-05-26T00:23:13.547Z,329.53
2018-05-26T00:25:41.020Z,465.67
2018-05-26T00:28:08.532Z,608.70
2018-05-26T00:30:36.016Z,687.73
2018-05-26T00:36:33.836Z,444.13
2018-05-26T00:39:01.340Z,790.93
2018-05-26T00:41:28.826Z,627.93
2018-05-26T00:43:56.303Z,609.05
2018-05-26T00:46:23.796Z,364.53
2018-05-26T00:48:51.275Z,204.13
2018-05-26T00:51:21.571Z,554.93
2018-05-26T00:53:49.065Z,630.45
2018-05-26T00:56:16.811Z,572.57
2018-05-26T00:58:44.517Z,637.60
2018-05-26T01:01:12.311Z,688.50
2018-05-26T01:03:39.809Z,372.33
2018-05-26T01:06:07.300Z,842.67
2018-05-26T01:08:34.788Z,547.47
2018-05-26T01:11:02.264Z,542.60
2018-05-26T01:13:29.776Z,490.40
2018-05-26T01:15:57.360Z,851.70
2018-05-26T01:18:24.856Z,712.43
2018-05-26T01:20:52.339Z,840.47
2018-05-26T01:23:19.841Z,667.13
2018-05-26T01:25:47.937Z,612.28
2018-05-26T01:28:15.445Z,705.07
2018-05-26T01:30:42.924Z,725.30
2018-05-26T01:33:10.432Z,728.63
2018-05-26T01:35:37.910Z,346.40
2018-05-26T01:38:05.412Z,453.77
2018-05-26T01:40:32.893Z,748.27
2018-05-26T01:43:00.613Z,729.37
2018-05-26T01:45:28.097Z,614.73
2018-05-26T01:47:55.580Z,457.12
2018-05-26T01:50:23.078Z,486.23
2018-05-26T01:52:51.389Z,452.02
2018-05-26T01:55:18.876Z,298.20
2018-05-26T01:57:46.353Z,444.93
2018-05-26T02:00:13.849Z,399.27
2018-05-26T02:02:41.335Z,422.83
2018-05-26T02:05:08.849Z,397.60
2018-05-26T02:07:36.327Z,256.77
2018-05-26T02:10:03.824Z,190.80
2018-05-26T02:12:31.303Z,296.13
2018-05-26T02:14:58.799Z,229.32
2018-05-26T02:17:26.341Z,201.80
2018-05-26T02:19:53.853Z,278.40
2018-05-26T02:22:21.338Z,193.80
2018-05-26T02:24:48.831Z,252.80
2018-05-26T02:27:16.319Z,180.57
2018-05-26T02:29:43.831Z,170.77
2018-05-26T02:32:11.296Z,222.32
2018-05-26T02:34:38.799Z,166.57
2018-05-26T02:37:06.294Z,175.07
2018-05-26T02:39:33.794Z,184.73
2018-05-26T02:42:01.276Z,176.23
2018-05-26T02:44:28.789Z,177.33
2018-05-26T02:46:56.259Z,175.10
2018-05-26T02:49:23.760Z,164.30
2018-05-26T02:51:51.241Z,155.77
2018-05-26T02:54:18.736Z,211.17
2018-05-26T02:56:46.218Z,329.77
2018-05-26T02:59:13.712Z,425.53
2018-05-26T03:01:41.197Z,427.87
2018-05-26T03:04:08.155Z,196.65
2018-05-26T03:06:41.156Z,266.93
2018-05-26T03:09:14.028Z,346.35
2018-05-26T03:11:47.001Z,314.77
2018-05-26T03:14:20.000Z,227.10
2018-05-26T03:16:51.346Z,602.67
2018-05-26T03:19:18.843Z,437.90
2018-05-26T03:21:46.325Z,204.47
2018-05-26T03:24:13.824Z,210.32
2018-05-26T03:26:41.299Z,275.27
2018-05-26T03:29:08.801Z,205.57
2018-05-26T03:31:36.275Z,230.50
2018-05-26T03:34:03.759Z,228.30
2018-05-26T03:36:31.263Z,227.60
2018-05-26T03:38:58.737Z,237.30
2018-05-26T03:41:26.227Z,205.37
2018-05-26T03:43:53.701Z,243.67
2018-05-26T03:46:21.192Z,251.62
2018-05-26T03:48:48.671Z,214.77
2018-05-26T03:51:16.167Z,236.00
2018-05-26T03:53:43.646Z,232.07
2018-05-26T03:56:22.882Z,278.10
2018-05-26T03:59:02.074Z,240.93
2018-05-26T04:01:29.563Z,214.47
2018-05-26T04:03:57.051Z,218.50
2018-05-26T04:06:24.543Z,228.93
2018-05-26T04:08:52.023Z,236.60
2018-05-26T04:11:19.813Z,217.43
2018-05-26T04:13:47.302Z,218.57
2018-05-26T04:16:14.780Z,247.48
2018-05-26T04:18:42.289Z,231.63
2018-05-26T04:21:10.399Z,243.33
2018-05-26T04:23:37.893Z,233.07
2018-05-26T04:26:05.378Z,231.83
2018-05-26T04:28:32.894Z,249.83
2018-05-26T04:31:00.367Z,215.33
2018-05-26T04:33:27.853Z,238.62
2018-05-26T04:35:55.364Z,236.33
2018-05-26T04:38:22.873Z,202.60
2018-05-26T04:40:50.379Z,238.75
2018-05-26T04:43:17.864Z,211.85
2018-05-26T04:45:45.340Z,197.40
2018-05-26T04:48:13.408Z,183.37
2018-05-26T04:50:40.887Z,180.53
2018-05-26T04:53:08.375Z,176.53
2018-05-26T04:55:35.849Z,161.47
2018-05-26T04:58:03.324Z,157.00
2018-05-26T05:00:30.815Z,166.05
2018-05-26T05:02:58.283Z,145.73
2018-05-26T05:05:25.798Z,116.43
2018-05-26T05:07:53.277Z,120.57
2018-05-26T05:10:20.747Z,113.95
2018-05-26T05:12:48.241Z,141.27
2018-05-26T05:15:15.711Z,123.77
2018-05-26T05:17:43.206Z,124.07
2018-05-26T05:20:10.683Z,111.47
2018-05-26T05:22:38.156Z,99.00
2018-05-26T05:25:05.649Z,108.93
2018-05-26T05:27:33.139Z,99.50
2018-05-26T05:30:00.616Z,51.97
2018-05-26T05:32:28.148Z,57.03
2018-05-26T05:34:55.608Z,53.57
2018-05-26T05:37:23.078Z,60.73
2018-05-26T05:39:50.553Z,59.37
2018-05-26T05:42:18.035Z,54.57
2018-05-26T05:44:45.808Z,43.63
2018-05-26T05:47:13.300Z,39.93
2018-05-26T05:49:40.758Z,29.67
2018-05-26T05:52:08.223Z,27.00
2018-05-26T05:54:35.708Z,39.47
2018-05-26T05:57:03.177Z,27.30
2018-05-26T05:59:30.667Z,22.80
2018-05-26T06:01:58.133Z,21.40
2018-05-26T06:04:25.611Z,21.60
2018-05-26T06:06:53.096Z,22.83
2018-05-26T06:09:20.570Z,24.30
2018-05-26T06:11:48.059Z,27.73
2018-05-26T06:14:15.528Z,25.77
2018-05-26T06:16:43.002Z,22.17
2018-05-26T06:19:10.499Z,23.40
2018-05-26T06:21:37.975Z,23.63
2018-05-26T06:24:05.459Z,20.47
2018-05-26T06:26:32.931Z,26.83
2018-05-26T06:29:00.399Z,20.90
2018-05-26T06:31:27.899Z,19.80
2018-05-26T06:33:55.366Z,24.92
2018-05-26T06:36:22.851Z,24.77
2018-05-26T06:38:50.332Z,21.17
2018-05-26T06:41:18.079Z,22.03
2018-05-26T06:43:45.567Z,61.75
2018-05-26T06:46:13.412Z,22.13
2018-05-26T06:48:40.944Z,19.60
2018-05-26T06:51:08.421Z,21.50
2018-05-26T06:53:36.148Z,19.67
2018-05-26T06:56:03.632Z,22.40
2018-05-26T06:58:31.103Z,22.20
2018-05-26T07:00:58.603Z,23.27
2018-05-26T07:03:26.076Z,21.62
2018-05-26T07:05:53.551Z,23.77
2018-05-26T07:08:21.045Z,23.50
2018-05-26T07:10:48.516Z,23.30
2018-05-26T07:13:16.019Z,29.57
2018-05-26T07:15:43.501Z,32.47
2018-05-26T07:18:10.975Z,23.73
2018-05-26T07:20:38.465Z,26.67
2018-05-26T07:23:05.932Z,26.67
2018-05-26T07:25:34.312Z,30.08
2018-05-26T07:28:01.780Z,28.87
2018-05-26T07:30:29.277Z,34.33
2018-05-26T07:32:56.748Z,33.87
2018-05-26T07:35:24.218Z,41.67
2018-05-26T07:37:51.716Z,41.47
2018-05-26T07:40:19.189Z,34.40
2018-05-26T07:42:46.678Z,47.83
2018-05-26T07:45:14.160Z,34.00
2018-05-26T07:47:41.661Z,33.23
2018-05-26T07:50:09.134Z,37.45
2018-05-26T07:52:36.597Z,36.00
2018-05-26T07:55:04.079Z,37.90
2018-05-26T07:57:31.557Z,47.20
2018-05-26T07:59:59.043Z,33.90
2018-05-26T08:02:26.519Z,41.20
2018-05-26T08:04:53.984Z,92.70
2018-05-26T08:07:21.468Z,43.27
2018-05-26T08:09:48.933Z,37.97
2018-05-26T08:12:16.443Z,37.93
2018-05-26T08:14:44.212Z,40.30
2018-05-26T08:17:11.742Z,44.40
2018-05-26T08:19:39.187Z,39.30
2018-05-26T08:22:06.652Z,37.90
2018-05-26T08:24:34.142Z,40.10
2018-05-26T08:27:01.619Z,38.03
2018-05-26T08:29:29.263Z,47.33
2018-05-26T08:31:56.729Z,34.20
2018-05-26T08:34:24.200Z,34.57
2018-05-26T08:36:51.694Z,38.90
2018-05-26T08:39:19.183Z,33.97
2018-05-26T08:41:46.671Z,31.92
2018-05-26T08:44:14.143Z,32.72
2018-05-26T08:46:41.618Z,32.00
2018-05-26T08:49:09.108Z,35.80
2018-05-26T08:51:36.585Z,28.77
2018-05-26T08:54:04.068Z,33.53
2018-05-26T08:56:31.550Z,28.27
2018-05-26T08:58:59.040Z,29.42
2018-05-26T09:01:26.527Z,31.52
2018-05-26T09:03:53.992Z,23.90
2018-05-26T09:06:21.516Z,37.97
2018-05-26T09:08:48.964Z,33.97
2018-05-26T09:11:16.468Z,30.03
2018-05-26T09:13:43.929Z,31.87
2018-05-26T09:16:11.404Z,27.20
2018-05-26T09:18:38.904Z,28.93
2018-05-26T09:21:06.376Z,28.40
2018-05-26T09:23:33.837Z,29.40
2018-05-26T09:26:01.320Z,27.77
2018-05-26T09:28:28.789Z,28.13
2018-05-26T09:30:56.276Z,30.20
2018-05-26T09:33:23.737Z,27.90
2018-05-26T09:35:51.215Z,26.90
2018-05-26T09:38:18.679Z,29.80
2018-05-26T09:40:46.156Z,28.03
2018-05-26T09:43:13.648Z,26.92
2018-05-26T09:45:41.424Z,25.53
2018-05-26T09:48:08.924Z,24.57
2018-05-26T09:50:36.392Z,22.73
2018-05-26T09:53:03.868Z,23.33
2018-05-26T09:55:31.349Z,21.63
2018-05-26T09:57:58.807Z,19.37
2018-05-26T10:00:26.310Z,22.10
2018-05-26T10:02:54.395Z,27.48
2018-05-26T10:05:21.872Z,30.20
2018-05-26T10:07:49.356Z,19.40
2018-05-26T10:10:16.817Z,15.67
2018-05-26T10:12:44.322Z,20.10
2018-05-26T10:15:11.797Z,16.95
2018-05-26T10:17:39.267Z,19.30
2018-05-26T10:20:06.761Z,16.57
2018-05-26T10:22:34.245Z,15.77
2018-05-26T10:25:01.958Z,20.48
2018-05-26T10:27:29.425Z,18.37
2018-05-26T10:29:57.696Z,17.80
2018-05-26T10:32:25.307Z,25.37
2018-05-26T10:34:52.775Z,14.53
2018-05-26T10:37:20.252Z,14.63
2018-05-26T10:39:47.715Z,11.83
2018-05-26T10:42:15.213Z,9.00
2018-05-26T10:44:42.688Z,11.93
2018-05-26T10:47:10.205Z,9.27
2018-05-26T10:49:37.651Z,9.83
2018-05-26T10:52:05.115Z,11.80
2018-05-26T10:54:32.601Z,14.13
2018-05-26T10:57:00.983Z,10.40
2018-05-26T10:59:28.479Z,10.20
2018-05-26T11:01:55.940Z,10.75
2018-05-26T11:04:23.410Z,12.50
2018-05-26T11:06:50.888Z,10.20
2018-05-26T11:09:18.357Z,10.23
2018-05-26T11:11:45.847Z,14.70
2018-05-26T11:14:13.312Z,10.67
2018-05-26T11:16:40.804Z,7.00
2018-05-26T11:19:08.305Z,9.90
2018-05-26T11:21:35.779Z,6.90
2018-05-26T11:24:03.385Z,8.83
2018-05-26T11:26:30.760Z,13.67
2018-05-26T11:28:58.270Z,9.30
2018-05-26T11:31:25.740Z,8.27
2018-05-26T11:33:53.200Z,6.40
2018-05-26T11:36:20.677Z,8.50
2018-05-26T11:38:48.147Z,9.10
2018-05-26T11:41:15.600Z,7.85
2018-05-26T11:43:43.175Z,6.43
2018-05-26T11:46:10.544Z,5.70
2018-05-26T11:48:38.022Z,7.50
2018-05-26T11:51:05.484Z,7.50
2018-05-26T11:53:33.346Z,4.10
2018-05-26T11:56:00.813Z,4.10
2018-05-26T11:58:28.278Z,3.63
2018-05-26T12:00:55.768Z,17.37
2018-05-26T12:03:23.223Z,5.03
2018-05-26T12:05:50.705Z,4.43
2018-05-26T12:08:18.160Z,4.65
2018-05-26T12:10:45.665Z,5.03
2018-05-26T12:13:13.123Z,5.20
2018-05-26T12:15:40.575Z,4.63
2018-05-26T12:18:08.058Z,4.93
2018-05-26T12:20:35.520Z,6.00
2018-05-26T12:23:02.984Z,2.33
2018-05-26T12:25:30.487Z,2.70
2018-05-26T12:27:57.935Z,2.77
2018-05-26T12:30:25.411Z,2.67
2018-05-26T12:32:52.873Z,3.20
2018-05-26T12:35:20.336Z,2.97
2018-05-26T12:37:47.807Z,3.03
2018-05-26T12:40:15.455Z,1.77
2018-05-26T12:42:42.945Z,2.60
2018-05-26T12:45:10.411Z,1.90
2018-05-26T12:47:37.871Z,1.50
2018-05-26T12:50:05.352Z,11.23
2018-05-26T12:52:32.815Z,1.52
2018-05-26T12:55:00.295Z,1.53
2018-05-26T12:57:27.747Z,2.50
2018-05-26T12:59:55.201Z,1.80
2018-05-26T13:02:22.681Z,3.03
2018-05-26T13:04:50.133Z,2.03
2018-05-26T13:07:17.613Z,2.13
2018-05-26T13:09:45.072Z,2.60
2018-05-26T13:12:12.544Z,1.60
2018-05-26T13:14:39.996Z,1.40
2018-05-26T13:17:07.454Z,1.80
2018-05-26T13:19:34.931Z,1.80
2018-05-26T13:22:02.383Z,1.60
2018-05-26T13:24:29.851Z,1.80
2018-05-26T13:26:57.310Z,2.43
2018-05-26T13:29:25.211Z,2.87
2018-05-26T13:31:52.671Z,1.60
2018-05-26T13:34:20.115Z,1.83
2018-05-26T13:36:47.602Z,2.10
2018-05-26T13:39:15.056Z,2.23
2018-05-26T13:41:42.526Z,1.90
2018-05-26T13:44:09.981Z,1.50
2018-05-26T13:46:37.436Z,1.73
2018-05-26T13:49:04.951Z,2.20
2018-05-26T13:51:32.451Z,6.25
2018-05-26T13:53:59.902Z,2.67
2018-05-26T13:56:27.415Z,5.20
2018-05-26T13:58:54.831Z,1.63
2018-05-26T14:01:23.349Z,1.90
2018-05-26T14:03:50.818Z,2.40
2018-05-26T14:06:18.280Z,2.17
2018-05-26T14:08:45.732Z,2.10
2018-05-26T14:11:13.200Z,2.37
2018-05-26T14:13:40.662Z,2.33
2018-05-26T14:16:08.116Z,2.00
2018-05-26T14:18:35.583Z,2.85
2018-05-26T14:21:03.037Z,1.97
2018-05-26T14:23:30.514Z,3.00
2018-05-26T14:25:57.980Z,1.83
2018-05-26T14:28:25.430Z,1.80
2018-05-26T14:30:53.379Z,2.10
2018-05-26T14:33:20.840Z,3.60
2018-05-26T14:35:48.309Z,1.80
2018-05-26T14:38:15.764Z,1.90
2018-05-26T14:40:43.222Z,3.05
2018-05-26T14:43:10.692Z,2.17
2018-05-26T14:45:38.146Z,1.77
2018-05-26T14:48:05.620Z,1.30
2018-05-26T14:50:33.296Z,1.10
2018-05-26T14:53:00.759Z,1.90
2018-05-26T14:55:28.222Z,2.30
2018-05-26T14:57:55.681Z,1.73
2018-05-26T15:00:23.169Z,1.77
2018-05-26T15:02:50.624Z,1.70
2018-05-26T15:05:18.070Z,1.80
2018-05-26T15:07:45.552Z,1.50
2018-05-26T15:10:13.004Z,2.00
2018-05-26T15:12:40.508Z,1.52
2018-05-26T15:15:07.960Z,6.50
2018-05-26T15:17:35.414Z,2.13
2018-05-26T15:20:02.889Z,2.50
2018-05-26T15:22:30.346Z,1.80
2018-05-26T15:24:57.824Z,2.80
2018-05-26T15:27:25.273Z,4.70
2018-05-26T15:29:52.730Z,2.23
2018-05-26T15:32:20.204Z,2.87
2018-05-26T15:34:47.662Z,2.17
2018-05-26T15:37:15.147Z,2.70
2018-05-26T15:39:42.601Z,2.78
2018-05-26T15:42:10.053Z,2.70
2018-05-26T15:44:38.007Z,5.60
2018-05-26T15:47:05.458Z,6.33
2018-05-26T15:49:32.928Z,2.23
2018-05-26T15:52:00.392Z,2.10
2018-05-26T15:54:27.875Z,2.50
2018-05-26T15:56:55.335Z,2.42
2018-05-26T15:59:22.803Z,2.43
2018-05-26T16:01:50.272Z,2.67
2018-05-26T16:04:17.720Z,3.07
2018-05-26T16:06:45.209Z,2.30
2018-05-26T16:09:12.675Z,2.43
2018-05-26T16:11:40.248Z,4.50
2018-05-26T16:14:07.700Z,4.70
2018-05-26T16:16:35.160Z,4.60
2018-05-26T16:19:02.648Z,3.13
2018-05-26T16:21:30.103Z,2.97
2018-05-26T16:23:57.931Z,3.00
2018-05-26T16:26:25.396Z,6.73
2018-05-26T16:28:52.869Z,4.57
2018-05-26T16:31:20.334Z,4.27
2018-05-26T16:33:47.853Z,3.27
2018-05-26T16:36:15.337Z,3.43
2018-05-26T16:38:42.802Z,3.70
2018-05-26T16:41:10.264Z,3.70
2018-05-26T16:43:37.744Z,4.50
2018-05-26T16:46:05.201Z,3.70
2018-05-26T16:48:32.676Z,4.03
2018-05-26T16:51:00.377Z,4.78
2018-05-26T16:53:27.866Z,7.00
2018-05-26T16:55:55.316Z,7.12
2018-05-26T16:58:22.788Z,6.90
2018-05-26T17:00:50.540Z,3.50
2018-05-26T17:03:17.997Z,8.60
2018-05-26T17:05:46.233Z,4.63
2018-05-26T17:08:13.691Z,4.20
2018-05-26T17:10:41.158Z,3.77
2018-05-26T17:13:08.644Z,3.43
2018-05-26T17:15:36.099Z,3.93
2018-05-26T17:18:03.577Z,4.12
2018-05-26T17:20:31.132Z,38.70
2018-05-26T17:22:58.583Z,8.97
2018-05-26T17:25:26.053Z,4.30
2018-05-26T17:27:53.509Z,4.80
2018-05-26T17:30:20.982Z,6.00
2018-05-26T17:32:48.444Z,4.93
2018-05-26T17:35:15.915Z,4.43
2018-05-26T17:37:43.391Z,4.27
2018-05-26T17:40:10.847Z,5.60
2018-05-26T17:42:38.323Z,3.97
2018-05-26T17:45:05.793Z,4.20
2018-05-26T17:47:33.255Z,5.87
2018-05-26T17:50:00.729Z,9.20
2018-05-26T17:52:28.188Z,5.40
2018-05-26T17:54:55.676Z,12.03
2018-05-26T17:57:23.142Z,5.30
2018-05-26T17:59:50.610Z,5.43
2018-05-26T18:02:18.083Z,8.67
2018-05-26T18:04:45.529Z,7.03
2018-05-26T18:07:13.031Z,5.80
2018-05-26T18:09:40.495Z,6.27
2018-05-26T18:12:07.960Z,5.47
2018-05-26T18:14:35.431Z,7.67
2018-05-26T18:17:02.889Z,5.68
2018-05-26T18:19:30.393Z,5.97
2018-05-26T18:21:57.849Z,5.33
2018-05-26T18:24:25.310Z,5.03
2018-05-26T18:26:52.796Z,10.23
2018-05-26T18:29:20.256Z,9.57
2018-05-26T18:31:47.755Z,9.27
2018-05-26T18:34:15.213Z,5.65
2018-05-26T18:36:42.693Z,15.23
2018-05-26T18:39:10.160Z,8.73
2018-05-26T18:41:37.628Z,11.07
2018-05-26T18:44:05.108Z,6.63
2018-05-26T18:46:32.559Z,6.17
2018-05-26T18:49:00.029Z,7.47
2018-05-26T18:51:27.773Z,6.23
2018-05-26T18:53:55.232Z,7.07
2018-05-26T18:56:22.717Z,6.23
2018-05-26T18:58:50.180Z,9.75
2018-05-26T19:01:17.641Z,6.10
2018-05-26T19:03:45.116Z,6.97
2018-05-26T19:06:12.564Z,7.57
2018-05-26T19:08:40.050Z,19.60
2018-05-26T19:11:07.521Z,12.13
2018-05-26T19:13:35.139Z,13.93
2018-05-26T19:16:02.596Z,15.43
2018-05-26T19:18:30.053Z,11.33
2018-05-26T19:20:57.564Z,10.87
2018-05-26T19:23:25.031Z,7.93
2018-05-26T19:25:52.505Z,8.60
2018-05-26T19:28:19.969Z,10.45
2018-05-26T19:30:47.429Z,13.40
2018-05-26T19:33:14.899Z,7.57
2018-05-26T19:35:42.357Z,11.87
2018-05-26T19:38:09.853Z,10.60
2018-05-26T19:40:37.321Z,10.43
2018-05-26T19:43:04.788Z,14.90
2018-05-26T19:45:32.259Z,10.33
2018-05-26T19:47:59.720Z,12.13
2018-05-26T19:50:27.220Z,22.33
2018-05-26T19:52:54.688Z,11.70
2018-05-26T19:55:22.147Z,10.03
2018-05-26T19:57:49.623Z,20.80
2018-05-26T20:00:17.092Z,13.15
2018-05-26T20:02:44.580Z,13.60
2018-05-26T20:05:12.043Z,13.33
2018-05-26T20:07:39.521Z,12.87
2018-05-26T20:10:07.009Z,17.33
2018-05-26T20:12:34.471Z,12.00
2018-05-26T20:15:01.960Z,13.57
2018-05-26T20:17:29.433Z,22.35
2018-05-26T20:19:56.936Z,18.03
2018-05-26T20:22:24.407Z,15.90
2018-05-26T20:24:51.868Z,11.97
2018-05-26T20:27:19.370Z,13.45
2018-05-26T20:29:46.828Z,13.05
2018-05-26T20:32:14.752Z,13.60
2018-05-26T20:34:42.244Z,16.07
2018-05-26T20:37:09.708Z,12.80
2018-05-26T20:39:37.185Z,9.57
2018-05-26T20:42:04.648Z,11.50
2018-05-26T20:44:32.132Z,20.93
2018-05-26T20:46:59.600Z,16.03
2018-05-26T20:49:27.075Z,68.72
2018-05-26T20:51:54.560Z,30.67
2018-05-26T20:54:22.036Z,32.42
2018-05-26T20:56:49.528Z,16.53
2018-05-26T20:59:17.013Z,14.23
2018-05-26T21:01:44.508Z,15.07
2018-05-26T21:04:11.966Z,12.50
2018-05-26T21:06:39.438Z,15.20
2018-05-26T21:09:06.935Z,12.87
2018-05-26T21:11:34.408Z,13.40
2018-05-26T21:14:02.213Z,11.17
2018-05-26T21:16:29.679Z,12.55
2018-05-26T21:18:57.147Z,18.23
2018-05-26T21:21:24.635Z,12.00
2018-05-26T21:23:52.096Z,16.33
2018-05-26T21:26:19.592Z,11.03
2018-05-26T21:28:47.043Z,10.70
2018-05-26T21:31:14.511Z,10.50
2018-05-26T21:33:42.005Z,11.70
2018-05-26T21:36:09.469Z,11.63
2018-05-26T21:38:36.957Z,10.70
2018-05-26T21:41:04.420Z,13.67
2018-05-26T21:43:31.887Z,11.60
2018-05-26T21:45:59.366Z,12.10
2018-05-26T21:48:26.828Z,10.97
2018-05-26T21:50:54.315Z,11.73
2018-05-26T21:53:21.788Z,11.13
2018-05-26T21:55:49.251Z,11.77
2018-05-26T21:58:16.740Z,12.17
2018-05-26T22:00:44.204Z,11.57
2018-05-26T22:03:11.684Z,13.57
2018-05-26T22:05:39.143Z,13.50
2018-05-26T22:08:06.621Z,10.40
2018-05-26T22:10:34.088Z,12.90
2018-05-26T22:13:01.571Z,12.77
2018-05-26T22:15:29.061Z,10.87
2018-05-26T22:17:56.529Z,11.80
2018-05-26T22:20:24.016Z,12.00
2018-05-26T22:22:51.475Z,10.70
2018-05-26T22:25:18.948Z,11.13
2018-05-26T22:27:46.424Z,11.47
2018-05-26T22:30:13.898Z,12.10
2018-05-26T22:32:41.387Z,12.40
2018-05-26T22:35:08.852Z,12.73
2018-05-26T22:37:36.316Z,10.70
2018-05-26T22:40:03.795Z,11.23
2018-05-26T22:42:31.276Z,12.47
2018-05-26T22:44:58.764Z,11.70
2018-05-26T22:47:26.234Z,12.23
2018-05-26T22:49:53.707Z,11.77
2018-05-26T22:52:21.193Z,29.53
2018-05-26T22:54:48.660Z,16.25
2018-05-26T22:57:16.141Z,12.53
2018-05-26T22:59:43.606Z,11.97
2018-05-26T23:02:12.001Z,12.37
2018-05-26T23:04:39.469Z,14.90
2018-05-26T23:07:06.977Z,14.15
2018-05-26T23:09:35.452Z,12.13
2018-05-26T23:12:02.922Z,12.97
2018-05-26T23:14:30.395Z,12.50
2018-05-26T23:16:57.860Z,12.13
2018-05-26T23:19:25.349Z,13.50
2018-05-26T23:21:52.828Z,12.82
2018-05-26T23:24:20.305Z,19.33
2018-05-26T23:26:47.793Z,11.83
2018-05-26T23:29:15.259Z,12.60
2018-05-26T23:31:43.052Z,12.50
2018-05-26T23:34:10.526Z,18.83
2018-05-26T23:36:38.126Z,16.17
2018-05-26T23:39:06.482Z,14.33
2018-05-26T23:41:33.965Z,11.80
2018-05-26T23:44:01.456Z,13.17
2018-05-26T23:46:28.932Z,13.13
2018-05-26T23:48:56.398Z,14.60
2018-05-26T23:51:23.885Z,13.83
2018-05-26T23:53:51.807Z,12.53
2018-05-26T23:56:19.296Z,17.50
2018-05-26T23:58:46.951Z,13.35
